Carsamba, Turkey

5:59 AM +03 on December 04, 2016 (GMT +0300)
Balmumcu | | Change Station

Elev 350 ft 41.06 °N, 29.02 °E | Updated 7 minutes ago

Clear
Clear
39.7 °F
Feels Like 40 °F
N
2.0
Wind Variable Wind from NNW
Gusts 4.0 mph

Today
High -- | Low -- °F
--% Chance of Precip.
Yesterday
High -- | Low -- °F
Precip. -- in
Pressure 30.36 in
Visibility -9999.0 miles
Clouds
Windchill 40 °F
Dew Point 25 °F
Humidity 55%
Rainfall 0.00 in
Snow Depth Not available.
8:12 AM 5:35 PM
Waxing Crescent, 19% visible
METAR LTBA 040220Z 36005KT CAVOK 01/M04 Q1028 NOSIG RMK RWY17L 00000KT RWY05 34004KT RWY23 34004KT
Pressure 30.36 in
Visibility -9999.0 miles
Clouds
Windchill 40 °F
Dew Point 25 °F
Humidity 55%
Rainfall 0.00 in
Snow Depth Not available.
8:12 AM 5:35 PM
Waxing Crescent, 19% visible
METAR LTBA 040220Z 36005KT CAVOK 01/M04 Q1028 NOSIG RMK RWY17L 00000KT RWY05 34004KT RWY23 34004KT

10-Day Weather Forecast

×

Almanac

Astronomy

Dec. 04, 2016 Rise Set
Actual Time
Civil Twilight
Nautical Twilight
Astronomical Twilight
Moon
Length of Visible Light
Length of Day
Tomorrow will be .
, % of the Moon is Illuminated

Today's Extremes

Country Highs Country Lows

Community

WunderPhotos

Upload Photos

1,955,566 photos uploaded!

WunderBlog® & News

Nearby

Air Quality

  Air Quality AQ Index Pollutant
Not available.

Snow Depth

Station Depth Elevation

Earthquake Activity

City Distance Mag. Time & Date
Minimum magnitude displayed is 2.5.

Coastal Water Temperatures

Place Temperature

Stations

Nearby Weather Stations

Station Location Temp. Windchill Dew Point Humidity Wind Precip. Elev Updated Type